Time;durP1;ratioP1;P1;durP2;ratioP2;P2;SDS_P1;SDS_P2;PMS_P1;PMS_P2;Temp;Humidity;BMP_temperature;BMP_pressure;BME280_temperature;BME280_humidity;BME280_pressure;Samples;Min_cycle;Max_cycle;Signal;HPM_P1;HPM_P2
2023/09/27 00:00:14;;;;;;;14.43;12.90;;;;;;;15.24;84.21;101503.91;7398370;19;20016;-68
2023/09/27 00:02:44;;;;;;;15.82;14.07;;;;;;;15.24;84.39;101507.44;7397685;19;20509;-68
2023/09/27 00:05:14;;;;;;;19.27;14.38;;;;;;;15.21;84.46;101504.03;7398116;19;20381;-68
2023/09/27 00:07:43;;;;;;;17.80;15.63;;;;;;;15.19;84.34;101500.53;7398358;19;20014;-67
2023/09/27 00:10:13;;;;;;;14.82;13.32;;;;;;;15.14;84.43;101501.53;7397933;19;20537;-68
2023/09/27 00:12:45;;;;;;;16.35;14.30;;;;;;;15.14;84.66;101508.63;7396373;19;20050;-68
2023/09/27 00:15:14;;;;;;;15.80;14.10;;;;;;;15.11;84.40;101508.69;7397966;19;20151;-69
2023/09/27 00:17:44;;;;;;;17.75;14.52;;;;;;;15.06;84.81;101500.88;7397685;19;20533;-74
2023/09/27 00:20:15;;;;;;;17.60;14.57;;;;;;;15.04;84.56;101507.13;7397820;19;20485;-71
2023/09/27 00:22:44;;;;;;;15.57;13.90;;;;;;;15.01;84.51;101509.88;7397912;19;20014;-70
2023/09/27 00:25:14;;;;;;;20.20;14.65;;;;;;;14.98;84.89;101518.75;7397853;19;20086;-69
2023/09/27 00:27:45;;;;;;;16.80;14.50;;;;;;;14.94;84.81;101507.41;7397657;19;20393;-71
2023/09/27 00:30:16;;;;;;;16.98;14.05;;;;;;;14.91;84.88;101506.59;7397346;19;20482;-71
2023/09/27 00:32:45;;;;;;;15.38;13.70;;;;;;;14.87;84.85;101497.91;7396738;19;20478;-70
2023/09/27 00:35:19;;;;;;;16.67;15.00;;;;;;;14.85;84.83;101493.56;7397445;19;20018;-70
2023/09/27 00:37:47;;;;;;;;;;;;;;;14.81;84.49;101501.59;7397879;19;20027;-70
2023/09/27 00:40:18;;;;;;;14.88;13.30;;;;;;;14.76;84.64;101495.56;7397024;19;19924;-70
2023/09/27 00:42:49;;;;;;;16.35;14.07;;;;;;;14.72;84.49;101490.41;7397221;19;20026;-70
2023/09/27 00:45:19;;;;;;;15.57;12.63;;;;;;;14.67;84.62;101495.78;7397209;19;20013;-70
2023/09/27 00:47:50;;;;;;;15.68;13.55;;;;;;;14.64;84.67;101498.50;7394851;19;20017;-69
2023/09/27 00:50:25;;;;;;;15.63;13.73;;;;;;;14.61;84.84;101496.81;7396698;19;20012;-70
2023/09/27 00:53:00;;;;;;;16.40;13.95;;;;;;;14.59;84.65;101500.41;7395366;19;20011;-70
2023/09/27 00:55:28;;;;;;;14.32;12.82;;;;;;;14.56;84.87;101495.19;7396573;19;20006;-71
2023/09/27 00:58:00;;;;;;;16.75;13.88;;;;;;;14.52;84.73;101497.06;7395512;19;20082;-70
2023/09/27 01:00:28;;;;;;;15.98;14.00;;;;;;;14.48;84.64;101492.75;7395424;19;20031;-71
2023/09/27 01:02:57;;;;;;;19.10;13.55;;;;;;;14.44;84.89;101491.09;7394695;19;20015;-70
2023/09/27 01:05:26;;;;;;;15.15;13.50;;;;;;;14.42;84.84;101493.78;7394900;19;20082;-70
2023/09/27 01:07:55;;;;;;;16.10;13.90;;;;;;;14.39;84.72;101493.84;7396483;19;20011;-70
2023/09/27 01:10:23;;;;;;;16.60;13.50;;;;;;;14.37;84.75;101494.78;7396385;19;20070;-70
2023/09/27 01:12:52;;;;;;;14.45;12.90;;;;;;;14.33;84.94;101488.72;7395832;19;20047;-70
2023/09/27 01:15:23;;;;;;;19.33;13.82;;;;;;;14.30;84.94;101486.19;7396280;19;20074;-71
2023/09/27 01:17:56;;;;;;;16.85;14.02;;;;;;;14.28;85.12;101490.63;7396506;19;20078;-71
2023/09/27 01:20:25;;;;;;;15.52;14.02;;;;;;;14.25;85.30;101498.63;7396033;19;20010;-70
2023/09/27 01:22:59;;;;;;;14.70;13.07;;;;;;;14.22;85.51;101494.28;7395335;19;20581;-71
2023/09/27 01:25:31;;;;;;;14.57;12.90;;;;;;;14.19;85.61;101494.34;7396397;19;20019;-71
2023/09/27 01:28:00;;;;;;;14.77;13.18;;;;;;;14.17;85.69;101498.81;7396241;19;20099;-70
2023/09/27 01:30:32;;;;;;;13.90;12.45;;;;;;;14.12;85.60;101492.78;7402764;19;20015;-72
2023/09/27 01:33:03;;;;;;;13.40;12.05;;;;;;;14.09;85.59;101500.75;7404152;19;20010;-70
2023/09/27 01:35:32;;;;;;;15.63;13.77;;;;;;;14.06;85.76;101504.34;7396061;19;20022;-69
2023/09/27 01:38:03;;;;;;;16.90;14.18;;;;;;;14.03;85.85;101501.78;7395444;19;20014;-70
2023/09/27 01:40:32;;;;;;;19.33;14.45;;;;;;;13.99;86.08;101502.78;7395168;19;20034;-70
2023/09/27 01:43:01;;;;;;;19.88;15.00;;;;;;;13.97;86.44;101507.22;7394387;19;20021;-70
2023/09/27 01:45:31;;;;;;;19.77;15.13;;;;;;;13.95;86.67;101503.72;7395697;19;20439;-69
2023/09/27 01:48:00;;;;;;;22.10;15.88;;;;;;;13.95;86.91;101504.63;7395144;19;20016;-70
2023/09/27 01:50:30;;;;;;;19.55;15.68;;;;;;;13.94;87.33;101500.25;7394889;19;20011;-70
2023/09/27 01:52:59;;;;;;;17.17;15.15;;;;;;;13.93;87.25;101505.56;7394044;19;20027;-70
2023/09/27 01:55:31;;;;;;;17.75;14.75;;;;;;;13.91;87.47;101502.94;7394792;19;20490;-70
2023/09/27 01:57:59;;;;;;;20.48;15.40;;;;;;;13.90;87.71;101505.63;7393941;19;20014;-70
2023/09/27 02:00:28;;;;;;;22.30;17.55;;;;;;;13.87;87.81;101506.56;7392870;19;20477;-70
2023/09/27 02:02:58;;;;;;;18.90;15.52;;;;;;;13.86;88.13;101499.53;7394293;19;20056;-70
2023/09/27 02:05:28;;;;;;;19.75;16.65;;;;;;;13.86;88.04;101496.91;7394914;19;20023;-71
2023/09/27 02:07:56;;;;;;;19.65;17.05;;;;;;;13.85;88.51;101497.84;7394739;19;20015;-71
2023/09/27 02:10:26;;;;;;;21.10;15.88;;;;;;;13.83;89.09;101495.22;7394284;19;20010;-70
2023/09/27 02:12:57;;;;;;;20.42;16.80;;;;;;;13.83;88.89;101495.22;7393628;19;20380;-70
2023/09/27 02:15:25;;;;;;;20.17;16.10;;;;;;;13.82;88.72;101498.75;7401620;19;20015;-70
2023/09/27 02:17:54;;;;;;;19.48;15.77;;;;;;;13.82;89.04;101497.88;7401927;19;20022;-71
2023/09/27 02:20:23;;;;;;;21.02;16.13;;;;;;;13.80;89.07;101497.03;7401987;19;20361;-70
2023/09/27 02:22:52;;;;;;;19.00;16.17;;;;;;;13.79;89.21;101498.81;7400808;19;20438;-70
2023/09/27 02:25:20;;;;;;;20.45;15.55;;;;;;;13.75;89.07;101491.91;7401766;19;20014;-72
2023/09/27 02:27:49;;;;;;;20.42;14.52;;;;;;;13.72;88.95;101485.81;7401730;19;20010;-70
2023/09/27 02:30:20;;;;;;;20.13;15.35;;;;;;;13.71;89.09;101489.34;7401628;19;20017;-71
2023/09/27 02:32:48;;;;;;;18.15;14.77;;;;;;;13.68;89.04;101492.94;7400705;19;20030;-70
2023/09/27 02:35:18;;;;;;;22.92;15.40;;;;;;;13.67;89.00;101499.09;7401306;19;20382;-70
2023/09/27 02:37:47;;;;;;;19.02;14.30;;;;;;;13.64;89.11;101492.13;7401648;19;20014;-70
2023/09/27 02:40:17;;;;;;;18.50;14.35;;;;;;;13.63;88.89;101498.28;7400768;19;20070;-69
2023/09/27 02:42:47;;;;;;;17.35;14.13;;;;;;;13.62;89.12;101509.78;7400652;19;20351;-70
2023/09/27 02:45:16;;;;;;;18.05;15.35;;;;;;;13.59;88.89;101509.81;7400884;19;20486;-70
2023/09/27 02:47:47;;;;;;;23.00;16.30;;;;;;;13.59;89.17;101511.59;7400597;19;20014;-70
2023/09/27 02:50:16;;;;;;;18.23;15.43;;;;;;;13.57;89.06;101510.75;7401406;19;20014;-70
2023/09/27 02:52:44;;;;;;;22.60;15.55;;;;;;;13.54;89.24;101516.97;7399980;19;20018;-70
2023/09/27 02:55:13;;;;;;;19.13;15.40;;;;;;;13.50;89.51;101513.53;7400374;19;20017;-69
2023/09/27 02:57:50;;;;;;;19.50;15.18;;;;;;;13.49;89.41;101511.78;7397862;19;20042;-70
2023/09/27 03:00:20;;;;;;;19.40;15.38;;;;;;;13.47;89.17;101503.06;7400987;19;20010;-70
2023/09/27 03:02:51;;;;;;;16.05;14.40;;;;;;;13.46;89.30;101503.09;7399806;19;20014;-70
2023/09/27 03:05:20;;;;;;;20.40;15.93;;;;;;;13.45;89.42;101512.75;7400621;19;20070;-71
2023/09/27 03:07:48;;;;;;;17.10;14.90;;;;;;;13.44;89.54;101518.94;7399550;19;20010;-70
2023/09/27 03:10:18;;;;;;;18.08;16.10;;;;;;;13.42;89.61;101522.50;7399622;19;20018;-71
2023/09/27 03:12:49;;;;;;;18.77;16.20;;;;;;;13.41;89.42;101513.75;7398946;19;20034;-70
2023/09/27 03:15:18;;;;;;;19.27;15.50;;;;;;;13.40;89.46;101511.13;7399869;19;20022;-71
2023/09/27 03:17:47;;;;;;;18.73;15.70;;;;;;;13.38;89.48;101513.78;7396926;19;20035;-70
2023/09/27 03:20:19;;;;;;;18.40;15.07;;;;;;;13.36;89.63;101512.94;7399034;19;20510;-70
2023/09/27 03:22:45;;;;;;;18.33;14.85;;;;;;;13.34;89.58;101512.97;7399623;19;20027;-70
2023/09/27 03:25:14;;;;;;;17.75;15.45;;;;;;;13.32;89.35;101514.75;7398895;19;20007;-70
2023/09/27 03:27:42;;;;;;;17.95;15.38;;;;;;;13.31;89.31;101509.53;7399489;19;20074;-70
2023/09/27 03:30:11;;;;;;;15.90;14.10;;;;;;;13.28;89.19;101510.47;7399594;19;20018;-70
2023/09/27 03:32:40;;;;;;;18.52;14.73;;;;;;;13.26;89.30;101509.63;7398960;19;20070;-70
2023/09/27 03:35:10;;;;;;;20.65;14.52;;;;;;;13.25;89.03;101507.03;7398556;19;20077;-70
2023/09/27 03:37:42;;;;;;;18.20;15.20;;;;;;;13.20;89.24;101513.25;7399323;19;20099;-70
2023/09/27 03:40:13;;;;;;;18.73;14.82;;;;;;;13.17;89.12;101521.22;7397225;19;20011;-71
2023/09/27 03:42:44;;;;;;;17.80;14.45;;;;;;;13.16;89.15;101524.75;7396877;19;20034;-70
2023/09/27 03:45:10;;;;;;;14.80;12.52;;;;;;;13.13;89.02;101522.19;7399235;19;20025;-70
2023/09/27 03:47:39;;;;;;;22.02;14.55;;;;;;;13.11;88.82;101512.56;7398100;19;20489;-70
2023/09/27 03:50:08;;;;;;;22.52;15.30;;;;;;;13.08;88.86;101505.59;7398278;19;20015;-70
2023/09/27 03:52:37;;;;;;;19.05;14.95;;;;;;;13.06;88.79;101506.53;7398606;19;20046;-70
2023/09/27 03:55:09;;;;;;;20.88;15.02;;;;;;;13.03;88.92;101503.03;7398596;19;20380;-70
2023/09/27 03:57:38;;;;;;;19.45;15.23;;;;;;;13.02;89.24;101496.03;7396942;19;20022;-69
2023/09/27 04:00:12;;;;;;;17.88;14.80;;;;;;;13.00;89.19;101502.22;7398552;19;20024;-69
2023/09/27 04:02:40;;;;;;;19.90;15.80;;;;;;;12.98;88.98;101514.59;7397869;19;20336;-71
2023/09/27 04:05:09;;;;;;;18.52;15.35;;;;;;;12.96;89.44;101524.28;7397985;19;20332;-71
2023/09/27 04:07:39;;;;;;;18.98;15.10;;;;;;;12.94;89.11;101511.13;7397498;19;20505;-71
2023/09/27 04:10:11;;;;;;;24.10;16.83;;;;;;;12.94;89.22;101497.09;7397726;19;20011;-71
2023/09/27 04:12:40;;;;;;;22.40;16.85;;;;;;;12.92;89.23;101518.19;7397563;19;20018;-71
2023/09/27 04:15:10;;;;;;;19.08;15.38;;;;;;;12.90;89.32;101512.06;7397256;19;20018;-71
2023/09/27 04:17:39;;;;;;;19.58;15.82;;;;;;;12.88;89.18;101503.34;7395616;19;20018;-71
2023/09/27 04:20:14;;;;;;;21.10;15.80;;;;;;;12.86;89.58;101500.75;7397211;19;20139;-70
2023/09/27 04:22:43;;;;;;;22.77;16.75;;;;;;;12.84;89.30;101507.81;7397327;19;20016;-71
2023/09/27 04:25:15;;;;;;;20.42;16.13;;;;;;;12.82;89.65;101514.00;7397128;19;20006;-70
2023/09/27 04:27:45;;;;;;;21.80;16.60;;;;;;;12.81;89.70;101521.00;7397189;19;20104;-70
2023/09/27 04:30:18;;;;;;;20.83;17.02;;;;;;;12.80;89.97;101521.03;7397155;19;20074;-70
2023/09/27 04:32:50;;;;;;;23.63;17.67;;;;;;;12.80;89.54;101521.94;7397097;19;20018;-71
2023/09/27 04:35:19;;;;;;;20.85;17.52;;;;;;;12.79;89.74;101521.94;7397690;19;20013;-71
2023/09/27 04:37:48;;;;;;;73.75;49.35;;;;;;;12.77;89.85;101521.97;7394454;19;20030;-70
2023/09/27 04:40:19;;;;;;;98.93;64.57;;;;;;;12.73;90.24;101517.66;7396376;19;20335;-69
2023/09/27 04:42:48;;;;;;;53.22;36.47;;;;;;;12.75;90.23;101533.44;7396444;19;20082;-70
2023/09/27 04:45:17;;;;;;;32.55;22.15;;;;;;;12.74;90.18;101524.69;7396686;19;20030;-71
2023/09/27 04:47:46;;;;;;;26.33;19.45;;;;;;;12.73;90.49;101528.19;7396822;19;20015;-70
2023/09/27 04:50:15;;;;;;;24.10;17.88;;;;;;;12.74;90.31;101547.50;7396507;19;20015;-69
2023/09/27 04:52:43;;;;;;;24.38;19.10;;;;;;;12.72;90.65;101555.41;7395768;19;20089;-70
2023/09/27 04:55:12;;;;;;;25.13;20.50;;;;;;;12.71;91.11;101551.03;7397269;19;20007;-71
2023/09/27 04:57:43;;;;;;;27.15;20.98;;;;;;;12.70;91.06;101554.56;7394943;19;20020;-70
2023/09/27 05:00:18;;;;;;;35.53;23.95;;;;;;;12.68;91.29;101553.75;7393669;19;20037;-70
2023/09/27 05:02:46;;;;;;;33.65;24.02;;;;;;;12.71;91.58;101553.69;7395601;19;20474;-70
2023/09/27 05:05:16;;;;;;;30.95;23.25;;;;;;;12.72;91.89;101552.78;7395005;19;20082;-70
2023/09/27 05:07:44;;;;;;;31.75;22.65;;;;;;;12.73;92.00;101554.53;7393458;19;20019;-71
2023/09/27 05:10:13;;;;;;;32.90;23.25;;;;;;;12.75;91.99;101551.88;7394336;19;20015;-71
2023/09/27 05:12:44;;;;;;;27.52;20.70;;;;;;;12.76;92.19;101561.50;7394798;19;20028;-71
2023/09/27 05:15:13;;;;;;;30.10;22.48;;;;;;;12.76;92.10;101565.00;7393888;19;20407;-69
2023/09/27 05:17:41;;;;;;;29.65;21.48;;;;;;;12.76;92.25;101565.00;7395390;19;20028;-71
2023/09/27 05:20:13;;;;;;;31.65;21.08;;;;;;;12.76;92.27;101562.38;7396488;19;20014;-71
2023/09/27 05:22:41;;;;;;;31.20;22.05;;;;;;;12.76;92.29;101570.25;7393828;19;20026;-70
2023/09/27 05:25:10;;;;;;;35.15;22.50;;;;;;;12.76;92.40;101575.53;7392718;19;20010;-70
2023/09/27 05:27:39;;;;;;;32.47;21.92;;;;;;;12.76;92.49;101578.16;7391543;19;20011;-70
2023/09/27 05:30:11;;;;;;;38.10;22.80;;;;;;;12.77;92.45;101579.03;7394130;19;20010;-70
2023/09/27 05:32:40;;;;;;;31.30;20.92;;;;;;;12.77;92.38;101584.31;7391934;19;20325;-71
2023/09/27 05:35:09;;;;;;;30.95;21.02;;;;;;;12.77;92.38;101593.06;7392279;19;20074;-70
2023/09/27 05:37:38;;;;;;;31.70;21.75;;;;;;;12.77;92.49;101590.44;7394685;19;20034;-70
2023/09/27 05:40:09;;;;;;;40.17;22.58;;;;;;;12.77;92.56;101595.69;7394975;19;20021;-69
2023/09/27 05:42:38;;;;;;;35.45;24.02;;;;;;;12.79;92.79;101598.31;7394444;19;20021;-70
2023/09/27 05:45:11;;;;;;;44.88;30.73;;;;;;;12.79;92.50;101595.66;7395148;19;20020;-70
2023/09/27 05:47:40;;;;;;;38.90;27.05;;;;;;;12.80;92.73;101598.31;7392548;19;20486;-69
2023/09/27 05:50:12;;;;;;;35.15;24.27;;;;;;;12.82;92.81;101596.50;7394873;19;20015;-69
2023/09/27 05:52:43;;;;;;;36.40;26.02;;;;;;;12.84;92.96;101601.75;7394891;19;20010;-69
2023/09/27 05:55:11;;;;;;;37.63;25.08;;;;;;;12.87;93.19;101607.81;7393431;19;20086;-69
2023/09/27 05:57:40;;;;;;;37.00;26.63;;;;;;;12.91;93.53;101621.78;7392205;19;20064;-69
2023/09/27 06:00:22;;;;;;;40.10;27.33;;;;;;;12.95;93.73;101625.25;7393646;19;20018;-69
2023/09/27 06:02:50;;;;;;;39.42;27.05;;;;;;;12.99;93.73;101629.56;7392870;19;20398;-69
2023/09/27 06:05:19;;;;;;;41.40;27.88;;;;;;;13.01;93.88;101633.91;7393862;19;20019;-69
2023/09/27 06:07:48;;;;;;;40.95;26.92;;;;;;;13.06;94.31;101627.72;7393868;19;20358;-69
2023/09/27 06:10:17;;;;;;;43.58;29.58;;;;;;;13.09;94.62;101631.16;7394365;19;20015;-69
2023/09/27 06:12:45;;;;;;;45.35;28.58;;;;;;;13.13;95.13;101640.75;7393904;19;20007;-69
2023/09/27 06:15:17;;;;;;;45.53;30.98;;;;;;;13.18;95.43;101638.00;7392608;19;20011;-70
2023/09/27 06:17:46;;;;;;;45.13;30.60;;;;;;;13.22;95.79;101644.09;7392490;19;20010;-69
2023/09/27 06:20:19;;;;;;;47.05;30.17;;;;;;;13.27;95.83;101644.88;7393318;19;20483;-68
2023/09/27 06:22:48;;;;;;;;;;;;;;;13.30;96.19;101640.41;7394142;19;20188;-69
2023/09/27 06:25:17;;;;;;;42.05;29.33;;;;;;;13.35;95.64;101641.19;7393512;19;20267;-70
2023/09/27 06:27:46;;;;;;;43.92;30.85;;;;;;;13.41;95.54;101644.63;7393430;19;20018;-69
2023/09/27 06:30:18;;;;;;;43.85;30.75;;;;;;;13.46;95.79;101645.44;7393418;19;20066;-68
2023/09/27 06:32:46;;;;;;;45.47;31.60;;;;;;;13.52;96.14;101653.22;7393423;19;20018;-69
2023/09/27 06:35:15;;;;;;;42.90;32.58;;;;;;;13.59;96.31;101652.19;7391526;19;20011;-68
2023/09/27 06:37:48;;;;;;;46.42;34.55;;;;;;;13.65;96.64;101656.50;7393463;19;20023;-68
2023/09/27 06:40:17;;;;;;;39.88;31.52;;;;;;;13.72;96.80;101660.72;7393243;19;20011;-69
2023/09/27 06:42:46;;;;;;;43.30;32.60;;;;;;;13.78;97.01;101655.31;7392940;19;20140;-68
2023/09/27 06:45:18;;;;;;;52.33;37.22;;;;;;;13.87;97.03;101656.06;7393115;19;20496;-69
2023/09/27 06:47:47;;;;;;;42.05;31.90;;;;;;;13.94;97.21;101649.72;7392763;19;20038;-69
2023/09/27 06:50:17;;;;;;;40.60;30.90;;;;;;;14.00;97.38;101650.47;7392667;19;20474;-70
2023/09/27 06:52:59;;;;;;;45.50;31.90;;;;;;;14.09;97.34;101649.41;7392024;19;20086;-67
2023/09/27 06:55:27;;;;;;;42.78;30.30;;;;;;;14.18;97.32;101646.56;7391058;19;20390;-68
2023/09/27 06:58:09;;;;;;;39.70;29.85;;;;;;;14.26;97.30;101635.81;7390942;19;20086;-69
2023/09/27 07:00:42;;;;;;;34.42;29.10;;;;;;;14.34;97.21;101630.38;7396913;19;20030;-69
2023/09/27 07:03:11;;;;;;;34.20;28.67;;;;;;;14.42;97.18;101630.19;7398653;19;20035;-69
2023/09/27 07:05:39;;;;;;;35.38;26.95;;;;;;;14.49;97.08;101640.59;7399729;19;20019;-69
2023/09/27 07:08:09;;;;;;;34.45;24.55;;;;;;;14.56;97.04;101641.31;7399989;19;20014;-69
2023/09/27 07:10:37;;;;;;;33.30;24.83;;;;;;;14.62;96.72;101641.16;7399628;19;20082;-69
2023/09/27 07:13:06;;;;;;;32.65;25.35;;;;;;;14.70;96.40;101641.00;7396849;19;20082;-69
2023/09/27 07:15:45;;;;;;;33.55;25.85;;;;;;;14.75;96.23;101652.31;7397678;19;20011;-68
2023/09/27 07:18:15;;;;;;;35.85;24.48;;;;;;;14.83;95.82;101652.97;7399512;19;20481;-69
2023/09/27 07:20:44;;;;;;;39.10;26.50;;;;;;;14.90;95.79;101652.81;7399259;19;20014;-68
2023/09/27 07:23:15;;;;;;;33.20;25.70;;;;;;;14.96;95.83;101650.03;7398232;19;20014;-69
2023/09/27 07:25:44;;;;;;;34.25;25.80;;;;;;;15.03;95.68;101648.13;7397109;19;20411;-73
2023/09/27 07:28:19;;;;;;;37.20;24.92;;;;;;;15.10;95.46;101645.28;7396630;19;20021;-68
2023/09/27 07:30:52;;;;;;;31.52;25.55;;;;;;;15.16;95.40;101638.94;7399151;19;20482;-68
2023/09/27 07:33:21;;;;;;;31.93;27.03;;;;;;;15.22;95.18;101637.94;7397931;19;20031;-70
2023/09/27 07:35:52;;;;;;;32.80;25.23;;;;;;;15.29;95.28;101643.00;7396677;19;20083;-69
2023/09/27 07:38:20;;;;;;;38.03;25.02;;;;;;;15.37;95.14;101639.28;7399029;19;20038;-69
2023/09/27 07:40:49;;;;;;;34.08;25.05;;;;;;;15.43;95.11;101626.75;7398724;19;20031;-69
2023/09/27 07:43:18;;;;;;;34.13;24.83;;;;;;;15.51;94.93;101630.97;7397854;19;20017;-69
2023/09/27 07:45:47;;;;;;;29.77;23.13;;;;;;;15.57;95.26;101634.28;7398979;19;20089;-69
2023/09/27 07:48:21;;;;;;;30.38;23.55;;;;;;;15.66;95.09;101622.59;7399630;19;20024;-68
2023/09/27 07:50:50;;;;;;;31.13;23.50;;;;;;;15.73;94.87;101617.97;7395908;19;20458;-67
2023/09/27 07:53:19;;;;;;;31.63;24.65;;;;;;;15.80;94.95;101625.69;7396496;19;20473;-68
2023/09/27 07:55:51;;;;;;;29.38;24.02;;;;;;;15.89;95.08;101623.72;7395596;19;20421;-67
2023/09/27 07:58:19;;;;;;;27.67;24.05;;;;;;;15.98;95.20;101627.88;7395693;19;20010;-68
2023/09/27 08:00:48;;;;;;;30.23;23.65;;;;;;;16.05;95.12;101625.00;7398412;19;20007;-68
2023/09/27 08:03:21;;;;;;;33.78;25.33;;;;;;;16.12;95.12;101620.34;7396809;19;20031;-68
2023/09/27 08:05:50;;;;;;;27.05;22.80;;;;;;;16.20;94.81;101617.47;7398609;19;20010;-69
2023/09/27 08:08:18;;;;;;;29.33;23.98;;;;;;;16.21;95.05;101609.47;7395275;19;20010;-69
2023/09/27 08:10:49;;;;;;;30.02;22.80;;;;;;;16.34;95.14;101619.69;7396633;19;20074;-69
2023/09/27 08:13:19;;;;;;;30.77;23.67;;;;;;;16.40;94.91;101614.19;7395641;19;20010;-69
2023/09/27 08:15:50;;;;;;;27.73;23.15;;;;;;;16.49;95.12;101610.38;7396048;19;20082;-66
2023/09/27 08:18:21;;;;;;;26.15;20.80;;;;;;;16.56;94.79;101610.13;7398399;19;20015;-68
2023/09/27 08:20:49;;;;;;;28.42;22.08;;;;;;;16.64;94.37;101606.38;7396065;19;20014;-68
2023/09/27 08:23:18;;;;;;;25.80;22.50;;;;;;;16.72;94.51;101612.25;7396530;19;20014;-68
2023/09/27 08:25:48;;;;;;;27.25;22.15;;;;;;;16.81;94.52;101613.72;7396827;19;20020;-68
2023/09/27 08:28:16;;;;;;;21.98;18.33;;;;;;;16.89;94.04;101609.91;7397188;19;20415;-68
2023/09/27 08:30:45;;;;;;;23.45;18.50;;;;;;;16.98;93.88;101614.03;7397301;19;20007;-68
2023/09/27 08:33:13;;;;;;;25.88;20.55;;;;;;;17.07;93.22;101619.03;7396082;19;20015;-68
2023/09/27 08:35:45;;;;;;;27.42;20.73;;;;;;;17.16;93.06;101616.97;7395041;19;20347;-67
2023/09/27 08:38:14;;;;;;;25.33;21.20;;;;;;;17.25;92.63;101621.97;7396439;19;20017;-68
2023/09/27 08:40:45;;;;;;;23.48;18.60;;;;;;;17.35;92.21;101625.13;7395057;19;20419;-68
2023/09/27 08:43:16;;;;;;;21.63;18.48;;;;;;;17.43;92.09;101623.09;7395898;19;20047;-68
2023/09/27 08:45:45;;;;;;;19.63;16.90;;;;;;;17.54;91.64;101622.66;7396474;19;20020;-66
2023/09/27 08:48:18;;;;;;;24.17;16.73;;;;;;;17.65;90.86;101617.84;7394613;19;20027;-67
2023/09/27 08:50:51;;;;;;;22.47;15.73;;;;;;;17.78;90.56;101617.38;7396743;19;20369;-67
2023/09/27 08:53:20;;;;;;;16.05;14.40;;;;;;;17.91;89.56;101610.69;7393797;19;20384;-68
2023/09/27 08:55:50;;;;;;;19.42;14.30;;;;;;;18.01;88.95;101620.03;7394745;19;20464;-67
2023/09/27 08:58:19;;;;;;;19.63;14.40;;;;;;;18.13;88.24;101621.34;7395230;19;20015;-68
2023/09/27 09:00:47;;;;;;;16.70;13.93;;;;;;;18.25;87.59;101625.31;7395646;19;20492;-67
2023/09/27 09:03:17;;;;;;;16.80;13.25;;;;;;;18.35;87.42;101623.13;7395377;19;20015;-68
2023/09/27 09:05:48;;;;;;;18.45;14.35;;;;;;;18.45;86.71;101623.63;7393759;19;20014;-67
2023/09/27 09:08:19;;;;;;;16.65;13.88;;;;;;;18.54;86.14;101623.28;7393284;19;20006;-68
2023/09/27 09:10:48;;;;;;;18.00;13.48;;;;;;;18.63;86.03;101619.38;7394079;19;20355;-68
2023/09/27 09:13:21;;;;;;;17.75;13.70;;;;;;;18.73;85.73;101616.25;7394823;19;20031;-68
2023/09/27 09:15:51;;;;;;;18.85;14.48;;;;;;;18.84;85.28;101615.81;7393620;19;20486;-68
2023/09/27 09:18:31;;;;;;;14.52;12.82;;;;;;;18.93;84.68;101614.56;7396028;19;20351;-68
2023/09/27 09:21:08;;;;;;;17.30;13.50;;;;;;;19.02;84.54;101615.97;7394313;19;20014;-69
2023/09/27 09:23:46;;;;;;;16.85;12.90;;;;;;;19.12;83.37;101609.31;7392026;19;20037;-68
2023/09/27 09:26:15;;;;;;;14.75;12.13;;;;;;;19.21;83.22;101619.53;7395733;19;20031;-68
2023/09/27 09:28:56;;;;;;;17.13;11.80;;;;;;;19.31;82.60;101613.81;7394988;19;20014;-69
2023/09/27 09:31:25;;;;;;;15.52;11.85;;;;;;;19.40;82.10;101612.53;7394205;19;20010;-68
2023/09/27 09:34:06;;;;;;;15.15;11.80;;;;;;;19.51;81.29;101613.78;7393806;19;20030;-67
2023/09/27 09:36:34;;;;;;;16.02;12.05;;;;;;;19.60;80.88;101611.63;7392639;19;20423;-68
2023/09/27 09:39:13;;;;;;;16.10;11.25;;;;;;;19.67;79.95;101605.94;7394426;19;20354;-68
2023/09/27 09:41:49;;;;;;;16.98;11.07;;;;;;;19.78;79.95;101604.59;7394956;19;20010;-68
2023/09/27 09:44:22;;;;;;;16.77;12.35;;;;;;;19.87;79.35;101606.84;7393220;19;20035;-68
2023/09/27 09:46:51;;;;;;;13.10;10.63;;;;;;;19.99;79.06;101602.72;7392566;19;20007;-68
2023/09/27 09:49:21;;;;;;;13.65;10.95;;;;;;;20.10;78.23;101600.41;7393106;19;20038;-68
2023/09/27 09:51:52;;;;;;;13.82;10.18;;;;;;;20.21;77.39;101602.56;7394914;19;20374;-68
2023/09/27 09:54:30;;;;;;;11.60;9.38;;;;;;;20.30;76.68;101594.13;7392519;19;20015;-68
2023/09/27 09:57:00;;;;;;;13.25;9.57;;;;;;;20.39;75.91;101598.13;7394149;19;20010;-69
2023/09/27 09:59:36;;;;;;;11.32;8.07;;;;;;;20.49;75.62;101593.22;7392771;19;20014;-68
2023/09/27 10:02:21;;;;;;;11.30;9.55;;;;;;;20.58;74.29;101590.06;7395870;19;20062;-68
2023/09/27 10:04:55;;;;;;;9.15;8.18;;;;;;;20.68;74.44;101588.66;7392510;19;20403;-69
2023/09/27 10:07:24;;;;;;;11.98;8.43;;;;;;;20.76;73.72;101587.44;7394244;19;20019;-67
2023/09/27 10:09:55;;;;;;;13.25;9.05;;;;;;;20.87;73.50;101584.25;7392090;19;20021;-68
2023/09/27 10:12:26;;;;;;;7.63;6.80;;;;;;;20.96;72.37;101578.41;7394817;19;20082;-69
2023/09/27 10:14:55;;;;;;;8.68;6.97;;;;;;;21.04;71.63;101572.66;7394190;19;20021;-68
2023/09/27 10:17:26;;;;;;;8.85;6.50;;;;;;;21.10;71.13;101567.84;7393326;19;20520;-68
2023/09/27 10:20:14;;;;;;;9.73;5.70;;;;;;;21.23;69.82;101572.56;7395003;19;20010;-68
2023/09/27 10:22:44;;;;;;;11.55;6.07;;;;;;;21.33;69.86;101571.09;7392912;19;20477;-67
2023/09/27 10:25:36;;;;;;;11.68;6.53;;;;;;;21.44;68.71;101566.03;7393512;19;20015;-68
2023/09/27 10:28:15;;;;;;;7.30;5.75;;;;;;;21.55;68.29;101562.84;7393765;19;20010;-68
2023/09/27 10:31:09;;;;;;;9.98;6.60;;;;;;;21.64;68.75;101562.31;7394038;19;20019;-69
2023/09/27 10:33:39;;;;;;;;;;;;;;;21.75;68.44;101561.72;7393481;19;20019;-67
2023/09/27 10:36:37;;;;;;;9.43;6.75;;;;;;;21.85;67.72;101558.53;7398531;19;20258;-68
2023/09/27 10:39:10;;;;;;;9.02;6.22;;;;;;;21.93;68.31;101550.97;7395191;19;20495;-67
2023/09/27 10:41:46;;;;;;;9.95;6.35;;;;;;;22.01;67.61;101551.34;7398071;19;20015;-68
2023/09/27 10:44:15;;;;;;;8.30;6.47;;;;;;;22.10;67.45;101544.63;7397827;19;20066;-67
2023/09/27 10:46:45;;;;;;;8.38;6.03;;;;;;;22.17;66.84;101542.47;7397525;19;20499;-69
2023/09/27 10:49:15;;;;;;;9.55;5.88;;;;;;;22.22;66.24;101529.72;7400751;19;20018;-68
2023/09/27 10:51:46;;;;;;;9.73;6.57;;;;;;;22.32;65.82;101527.34;7400596;19;20078;-68
2023/09/27 10:54:14;;;;;;;10.52;7.00;;;;;;;22.38;65.48;101519.88;7398171;19;20014;-68
2023/09/27 10:56:52;;;;;;;7.75;6.57;;;;;;;22.47;65.10;101515.78;7398028;19;20017;-70
2023/09/27 10:59:25;;;;;;;11.18;6.30;;;;;;;22.53;64.03;101512.75;7397437;19;20015;-68
2023/09/27 11:01:54;;;;;;;10.10;6.03;;;;;;;22.60;64.29;101514.06;7399864;19;20019;-68
2023/09/27 11:04:24;;;;;;;9.05;5.15;;;;;;;22.68;63.28;101510.09;7397557;19;20027;-68
2023/09/27 11:06:53;;;;;;;9.48;5.00;;;;;;;22.76;63.01;101514.00;7399701;19;20031;-68
2023/09/27 11:09:23;;;;;;;8.60;5.60;;;;;;;22.85;61.90;101509.91;7399701;19;20015;-69
2023/09/27 11:11:57;;;;;;;5.85;4.63;;;;;;;22.91;61.62;101503.31;7400296;19;20031;-69
2023/09/27 11:14:30;;;;;;;7.65;4.85;;;;;;;23.01;61.19;101498.25;7396958;19;20374;-67
2023/09/27 11:16:58;;;;;;;8.55;5.30;;;;;;;23.09;60.67;101493.28;7396885;19;20010;-69
2023/09/27 11:19:31;;;;;;;6.85;5.95;;;;;;;23.16;60.88;101488.44;7396864;19;20035;-69
2023/09/27 11:22:00;;;;;;;8.50;6.10;;;;;;;23.25;60.85;101493.19;7399649;19;20010;-70
2023/09/27 11:24:39;;;;;;;9.73;6.43;;;;;;;23.34;60.48;101494.44;7396195;19;20031;-68
2023/09/27 11:27:11;;;;;;;6.95;6.22;;;;;;;23.42;60.41;101487.63;7400217;19;20426;-67